PWSweather.com
Personal Weather Stations
Station Observations
TMASSANO
Herbertsville, Brick, NJ 08724

HerbertsvilleBrick, NJ 08724

Lat: 40.098, Lon: -74.096

Elevation: 16

Station Type: WS 2800

High Low Average
Temperature 60.3°F15.7°C 50.8°F10.4°C 53.5°F11.9°C
Dew Point 56.8°F13.8°C 47.9°F8.8°C 49.9°F9.9°C
Winds 8.5 mph 13.7 kmh 0.4 mph 0.6 kmh 3.0 mph S4.8 kmh S
Wind Gusts 8.5 mph13.7 kmh 0.4 mph0.6 kmh 3.0 mph4.8 kmh
Humidity 92% 82% 88%
Pressure 29.93 in1013.5 mb 29.63 in1003.4 mb -
Precipitation 0.85 in21.6 mm - -
Hour Temp Dew Point Humidity Winds Wind Gusts Pressure Precip Precip Rate Daily Precip Total
12:00 AM 60.3°F15.7°C 56.8°F13.8°C 88% 2.9 mph NW4.7 kmh NW 2.9 mph4.7 kmh 29.85 in1010.8 mb 0.06 in1.5 mm 0.00 in/hr0.0 mm/hr 0.03 in0.8 mm
12:30 AM 59.2°F15.1°C 56.3°F13.5°C 90% 2.5 mph NNW4.0 kmh NNW 2.5 mph4.0 kmh 29.85 in1010.8 mb 0.02 in0.5 mm 0.00 in/hr0.0 mm/hr 0.06 in1.5 mm
01:00 AM 58.1°F14.5°C 54.6°F12.6°C 88% 3.4 mph NNW5.5 kmh NNW 3.4 mph5.5 kmh 29.86 in1011.2 mb 0.00 in0.0 mm 0.00 in/hr0.0 mm/hr 0.06 in1.5 mm
01:30 AM 57.1°F13.9°C 53.6°F12.0°C 88% 1.1 mph NNW1.8 kmh NNW 1.1 mph1.8 kmh 29.86 in1011.2 mb 0.00 in0.0 mm 0.00 in/hr0.0 mm/hr 0.06 in1.5 mm
02:00 AM 56.5°F13.6°C 53.0°F11.7°C 88% 0.7 mph NNW1.1 kmh NNW 0.7 mph1.1 kmh 29.86 in1011.2 mb 0.00 in0.0 mm 0.00 in/hr0.0 mm/hr 0.06 in1.5 mm
02:30 AM 56.2°F13.4°C 52.3°F11.3°C 87% 1.3 mph WNW2.1 kmh WNW 1.3 mph2.1 kmh 29.87 in1011.5 mb 0.00 in0.0 mm 0.00 in/hr0.0 mm/hr 0.06 in1.5 mm
03:00 AM 55.4°F13.0°C 51.9°F11.1°C 88% 1.3 mph NNW2.1 kmh NNW 1.3 mph2.1 kmh 29.87 in1011.5 mb 0.00 in0.0 mm 0.00 in/hr0.0 mm/hr 0.06 in1.5 mm
03:30 AM 55.3°F12.9°C 51.8°F11.0°C 88% 0.4 mph NNW0.6 kmh NNW 0.4 mph0.6 kmh 29.87 in1011.5 mb 0.00 in0.0 mm 0.00 in/hr0.0 mm/hr 0.06 in1.5 mm
04:00 AM 54.9°F12.7°C 51.4°F10.8°C 88% 1.3 mph NW2.1 kmh NW 1.3 mph2.1 kmh 29.87 in1011.5 mb 0.00 in0.0 mm 0.00 in/hr0.0 mm/hr 0.06 in1.5 mm
04:30 AM 54.4°F12.4°C 50.9°F10.5°C 88% 2.5 mph NNW4.0 kmh NNW 2.5 mph4.0 kmh 29.86 in1011.2 mb 0.00 in0.0 mm 0.00 in/hr0.0 mm/hr 0.06 in1.5 mm
05:00 AM 54.4°F12.4°C 50.9°F10.5°C 88% 2.0 mph NNW3.2 kmh NNW 2.0 mph3.2 kmh 29.86 in1011.2 mb 0.00 in0.0 mm 0.00 in/hr0.0 mm/hr 0.06 in1.5 mm
05:30 AM 53.8°F12.1°C 49.7°F9.8°C 86% 1.3 mph NNW2.1 kmh NNW 1.3 mph2.1 kmh 29.88 in1011.9 mb 0.00 in0.0 mm 0.00 in/hr0.0 mm/hr 0.06 in1.5 mm
06:00 AM 53.5°F11.9°C 49.1°F9.5°C 85% 1.1 mph NNW1.8 kmh NNW 1.1 mph1.8 kmh 29.88 in1011.9 mb 0.00 in0.0 mm 0.00 in/hr0.0 mm/hr 0.06 in1.5 mm
06:30 AM 53.6°F12.0°C 49.0°F9.4°C 84% 1.8 mph NNW2.9 kmh NNW 1.8 mph2.9 kmh 29.89 in1012.2 mb 0.00 in0.0 mm 0.00 in/hr0.0 mm/hr 0.06 in1.5 mm
07:00 AM 53.8°F12.1°C 48.8°F9.3°C 83% 2.2 mph 3.5 kmh 2.2 mph3.5 kmh 29.91 in1012.9 mb 0.00 in0.0 mm 0.00 in/hr0.0 mm/hr 0.06 in1.5 mm
07:30 AM 54.2°F12.3°C 49.2°F9.6°C 83% 1.1 mph 1.8 kmh 1.1 mph1.8 kmh 29.91 in1012.9 mb 0.00 in0.0 mm 0.00 in/hr0.0 mm/hr 0.06 in1.5 mm
08:00 AM 54.5°F12.5°C 49.1°F9.5°C 82% 1.6 mph NNE2.6 kmh NNE 1.6 mph2.6 kmh 29.92 in1013.2 mb 0.00 in0.0 mm 0.00 in/hr0.0 mm/hr 0.06 in1.5 mm
08:30 AM 54.7°F12.6°C 49.3°F9.6°C 82% 4.5 mph E7.2 kmh E 4.5 mph7.2 kmh 29.92 in1013.2 mb 0.00 in0.0 mm 0.00 in/hr0.0 mm/hr 0.06 in1.5 mm
09:00 AM 53.8°F12.1°C 48.5°F9.2°C 82% 4.7 mph 7.6 kmh 4.7 mph7.6 kmh 29.93 in1013.5 mb 0.00 in0.0 mm 0.00 in/hr0.0 mm/hr 0.06 in1.5 mm
09:30 AM 53.3°F11.8°C 48.2°F9.0°C 83% 2.2 mph NW3.5 kmh NW 2.2 mph3.5 kmh 29.93 in1013.5 mb 0.00 in0.0 mm 0.00 in/hr0.0 mm/hr 0.06 in1.5 mm
10:00 AM 52.9°F11.6°C 48.8°F9.3°C 86% 3.6 mph NNW5.8 kmh NNW 3.6 mph5.8 kmh 29.92 in1013.2 mb 0.02 in0.5 mm 0.04 in/hr1.0 mm/hr 0.06 in1.5 mm
10:30 AM 52.9°F11.6°C 49.2°F9.6°C 87% 4.0 mph NNW6.4 kmh NNW 4.0 mph6.4 kmh 29.89 in1012.2 mb 0.01 in0.3 mm 0.00 in/hr0.0 mm/hr 0.08 in2.0 mm
11:00 AM 52.2°F11.2°C 48.4°F9.1°C 87% 3.4 mph NNW5.5 kmh NNW 3.4 mph5.5 kmh 29.89 in1012.2 mb 0.02 in0.5 mm 0.02 in/hr0.5 mm/hr 0.08 in2.0 mm
11:30 AM 51.8°F11.0°C 48.7°F9.3°C 89% 0.4 mph 0.6 kmh 0.4 mph0.6 kmh 29.88 in1011.9 mb 0.04 in1.0 mm 0.04 in/hr1.0 mm/hr 0.10 in2.5 mm
12:00 PM 51.5°F10.8°C 48.3°F9.1°C 89% 2.7 mph NNW4.3 kmh NNW 2.7 mph4.3 kmh 29.88 in1011.9 mb 0.10 in2.5 mm 0.12 in/hr3.0 mm/hr 0.12 in3.0 mm
12:30 PM 51.5°F10.8°C 48.3°F9.1°C 89% 2.0 mph 3.2 kmh 2.0 mph3.2 kmh 29.89 in1012.2 mb 0.16 in4.1 mm 0.12 in/hr3.0 mm/hr 0.20 in5.1 mm
01:00 PM 51.7°F10.9°C 48.5°F9.2°C 89% 1.1 mph ENE1.8 kmh ENE 1.1 mph1.8 kmh 29.87 in1011.5 mb 0.11 in2.8 mm 0.00 in/hr0.0 mm/hr 0.28 in7.1 mm
01:30 PM 51.8°F11.0°C 48.7°F9.3°C 89% 6.3 mph NE10.1 kmh NE 6.3 mph10.1 kmh 29.85 in1010.8 mb 0.06 in1.5 mm 0.00 in/hr0.0 mm/hr 0.31 in7.9 mm
02:00 PM 51.3°F10.7°C 48.2°F9.0°C 89% 3.8 mph NNE6.1 kmh NNE 3.8 mph6.1 kmh 29.85 in1010.8 mb 0.10 in2.5 mm 0.08 in/hr2.0 mm/hr 0.35 in8.9 mm
02:30 PM 51.1°F10.6°C 48.0°F8.9°C 89% 3.8 mph ESE6.1 kmh ESE 3.8 mph6.1 kmh 29.82 in1009.8 mb 0.11 in2.8 mm 0.02 in/hr0.5 mm/hr 0.42 in10.7 mm
03:00 PM 50.8°F10.4°C 47.9°F8.8°C 90% 4.9 mph NE7.9 kmh NE 4.9 mph7.9 kmh 29.79 in1008.8 mb 0.15 in3.8 mm 0.08 in/hr2.0 mm/hr 0.47 in11.9 mm
03:30 PM 51.1°F10.6°C 48.2°F9.0°C 90% 2.7 mph ESE4.3 kmh ESE 2.7 mph4.3 kmh 29.77 in1008.1 mb 0.16 in4.1 mm 0.02 in/hr0.5 mm/hr 0.59 in15.0 mm
04:00 PM 50.8°F10.4°C 48.2°F9.0°C 91% 3.6 mph 5.8 kmh 3.6 mph5.8 kmh 29.75 in1007.5 mb 0.07 in1.8 mm 0.00 in/hr0.0 mm/hr 0.64 in16.3 mm
04:30 PM 50.8°F10.4°C 48.2°F9.0°C 91% 4.0 mph NE6.4 kmh NE 4.0 mph6.4 kmh 29.73 in1006.8 mb 0.09 in2.3 mm 0.04 in/hr1.0 mm/hr 0.67 in17.0 mm
05:00 PM 50.8°F10.4°C 48.2°F9.0°C 91% 3.4 mph NNE5.5 kmh NNE 3.4 mph5.5 kmh 29.72 in1006.4 mb 0.11 in2.8 mm 0.04 in/hr1.0 mm/hr 0.74 in18.8 mm
05:30 PM 50.8°F10.4°C 48.2°F9.0°C 91% 3.8 mph NNW6.1 kmh NNW 3.8 mph6.1 kmh 29.69 in1005.4 mb 0.08 in2.0 mm 0.00 in/hr0.0 mm/hr 0.78 in19.8 mm
06:00 PM 50.8°F10.4°C 48.4°F9.1°C 92% 8.5 mph NE13.7 kmh NE 8.5 mph13.7 kmh 29.66 in1004.4 mb 0.07 in1.8 mm 0.00 in/hr0.0 mm/hr 0.82 in20.8 mm
06:30 PM 50.9°F10.5°C 48.6°F9.2°C 92% 4.5 mph 7.2 kmh 4.5 mph7.2 kmh 29.63 in1003.4 mb 0.12 in3.0 mm 0.10 in/hr2.5 mm/hr 0.85 in21.6 mm
07:00 PM 51.1°F10.6°C 49.2°F9.6°C 93% 17.7 mph NNE28.5 kmh NNE 17.7 mph28.5 kmh 29.58 in1001.7 mb 0.23 in5.8 mm 0.22 in/hr5.6 mm/hr 0.94 in23.9 mm
07:30 PM 51.5°F10.8°C 49.5°F9.7°C 93% 10.5 mph SE16.9 kmh SE 10.5 mph16.9 kmh 29.56 in1001.0 mb 0.26 in6.6 mm 0.06 in/hr1.5 mm/hr 1.10 in27.9 mm
08:00 PM 51.8°F11.0°C 50.1°F10.1°C 94% 4.7 mph 7.6 kmh 4.7 mph7.6 kmh 29.55 in1000.7 mb 0.30 in7.6 mm 0.08 in/hr2.0 mm/hr 1.21 in30.7 mm
08:30 PM 52.2°F11.2°C 50.5°F10.3°C 94% 11.6 mph NE18.7 kmh NE 11.6 mph18.7 kmh 29.51 in999.3 mb 0.39 in9.9 mm 0.18 in/hr4.6 mm/hr 1.40 in35.6 mm
09:00 PM 52.9°F11.6°C 51.5°F10.8°C 95% 8.1 mph ENE13.0 kmh ENE 8.1 mph13.0 kmh 29.45 in997.3 mb 0.37 in9.4 mm 0.00 in/hr0.0 mm/hr 1.60 in40.6 mm
09:30 PM 54.7°F12.6°C 53.3°F11.8°C 95% 3.1 mph ENE5.0 kmh ENE 3.1 mph5.0 kmh 29.42 in996.3 mb 0.30 in7.6 mm 0.00 in/hr0.0 mm/hr 1.77 in45.0 mm
10:00 PM 56.5°F13.6°C 54.8°F12.7°C 94% 5.4 mph ENE8.7 kmh ENE 5.4 mph8.7 kmh 29.40 in995.6 mb 0.37 in9.4 mm 0.14 in/hr3.6 mm/hr 1.91 in48.5 mm
10:30 PM 56.2°F13.4°C 54.7°F12.6°C 95% 2.2 mph ESE3.5 kmh ESE 2.2 mph3.5 kmh 29.37 in994.6 mb 0.37 in9.4 mm 0.00 in/hr0.0 mm/hr 2.14 in54.4 mm
11:00 PM 57.8°F14.3°C 56.3°F13.5°C 95% 1.3 mph ESE2.1 kmh ESE 1.3 mph2.1 kmh 29.37 in994.6 mb 0.14 in3.6 mm 0.00 in/hr0.0 mm/hr 0.76 in19.3 mm
11:30 PM 58.5°F14.7°C 57.1°F13.9°C 95% 0.4 mph SSE0.6 kmh SSE 0.4 mph0.6 kmh 29.37 in994.6 mb 0.02 in0.5 mm 0.00 in/hr0.0 mm/hr 0.76 in19.3 mm